Wilson Cadiz — 8PSY — position and weather

sailwx.info

Track history (hours):
 
Tides and Currents Weather Stations Pressure Air Temp Water Temp Dewpoint Dewpoint Depression Visibility Wind Speed Wind Dir Waves Ship Positions

Wilson Cadiz

Last reported at 2016-May-28 09:33 UTC. Time now 2016-May-28 09:55 UTC.
Position N 53°24' E 014°36'.

Length 100 m; draft 5.4 m.

Type: Ship. MMSI: 314216000.

Date/timePositionNaut miles runAvg speedWind from/ knotsBaromVisibWave heightAir tempDewpointWater temp
2016-May-28 09:33N 53°24' E 014°36'0 0.0
2016-May-28 08:33N 53°24' E 014°36'0 0.0
2016-May-28 07:33N 53°24' E 014°36'5 4.7
2016-May-28 06:34N 53°29' E 014°37'9 8.6
2016-May-28 05:33N 53°38' E 014°35'1110.5
2016-May-28 04:33N 53°46' E 014°24'9 8.9
2016-May-28 03:34N 53°53' E 014°16'7 7.5
2016-May-28 02:34N 54°01' E 014°14'5 5.2
2016-May-28 01:34N 54°06' E 014°12'5 4.9
2016-May-28 00:34N 54°10' E 014°09'21 6.6
2016-May-27 21:18N 54°28' E 013°49'6 7.6
2016-May-27 20:34N 54°33' E 013°45'8 7.6
2016-May-27 19:34N 54°40' E 013°38'7 7.4
2016-May-27 18:34N 54°46' E 013°32'8 7.8
2016-May-27 17:34N 54°53' E 013°25'8 8.1
2016-May-27 16:33N 55°00' E 013°18'8 8.0
2016-May-27 15:33N 55°06' E 013°08'8 8.3
2016-May-27 14:33N 55°11' E 012°58'8 7.9
2016-May-27 13:33N 55°16' E 012°46'8 7.6
2016-May-27 12:34N 55°22' E 012°39'1110.8
2016-May-27 11:34N 55°33' E 012°42'1010.2
2016-May-27 10:34N 55°43' E 012°41'1110.7
2016-May-27 09:34N 55°54' E 012°39'1010.1
2016-May-27 08:34N 56°04' E 012°37'9 9.3
2016-May-27 07:34N 56°11' E 012°26'2310.2
2016-May-27 05:17N 56°33' E 012°14'810.8
2016-May-27 04:34N 56°41' E 012°11'1110.7
2016-May-27 03:34N 56°51' E 012°05'1110.6
2016-May-27 02:34N 57°01' E 012°00'1110.7
2016-May-27 01:34N 57°11' E 011°55'1110.5
2016-May-27 00:33N 57°20' E 011°43'1110.9
2016-May-26 23:33N 57°29' E 011°32'1111.4
2016-May-26 22:34N 57°38' E 011°20'1211.6
2016-May-26 21:34N 57°48' E 011°09'1111.3
2016-May-26 20:34N 57°58' E 010°58'1111.1
2016-May-26 19:34N 58°07' E 010°46'1111.5
2016-May-26 18:34N 58°17' E 010°35'1211.9
2016-May-26 17:34N 58°27' E 010°23'1111.4
2016-May-26 16:34N 58°37' E 010°11'1111.2
2016-May-26 15:33N 58°46' E 009°60'1111.0
2016-May-26 14:34N 58°56' E 009°49'9 8.9
2016-May-26 13:33N 59°03' E 009°40'4 0.2
2016-May-25 10:15N 59°08' E 009°37'1 0.1
2016-May-24 08:32N 59°06' E 009°38'0 0.1
2016-May-24 07:32N 59°06' E 009°38'0 0.0
2016-May-24 06:20N 59°06' E 009°38'0 0.1
2016-May-24 05:32N 59°06' E 009°38'0 0.0
2016-May-24 04:23N 59°06' E 009°38'0 0.0
2016-May-24 03:32N 59°06' E 009°38'0 0.0
2016-May-23 23:32N 59°06' E 009°38'0 0.0
2016-May-23 21:29N 59°06' E 009°38'0 0.0
2016-May-23 20:32N 59°06' E 009°38'0 0.0
2016-May-23 19:32N 59°06' E 009°38'0 0.0
2016-May-23 18:23N 59°06' E 009°38'0 0.0
2016-May-23 17:26N 59°06' E 009°38'0 0.0
2016-May-23 16:20N 59°06' E 009°38'0 0.0
2016-May-23 14:20N 59°06' E 009°38'0 0.0
2016-May-23 08:29N 59°06' E 009°38'0 0.0
2016-May-23 07:32N 59°06' E 009°38'0 0.0
2016-May-23 06:26N 59°06' E 009°38'0 0.0
2016-May-23 04:32N 59°06' E 009°38'0 0.0
2016-May-23 03:32N 59°06' E 009°38'  
2016-May-19 07:32N 59°05' E 009°38'9 8.8
2016-May-19 06:33N 58°57' E 009°47'  
Track history (hours):
 
Tides and Currents Weather Stations Pressure Air Temp Water Temp Dewpoint Dewpoint Depression Visibility Wind Speed Wind Dir Waves Ship Positions

Wilson Cadiz

Last reported at 2016-May-28 09:33 UTC. Time now 2016-May-28 09:55 UTC.
Position N 53°24' E 014°36'.

Length 100 m; draft 5.4 m.

Type: Ship. MMSI: 314216000.

Date/timePositionNaut miles runAvg speedWind from/ knotsBaromVisibWave heightAir tempDewpointWater temp
2016-May-28 09:33N 53°24' E 014°36'0 0.0
2016-May-28 08:33N 53°24' E 014°36'0 0.0
2016-May-28 07:33N 53°24' E 014°36'5 4.7
2016-May-28 06:34N 53°29' E 014°37'9 8.6
2016-May-28 05:33N 53°38' E 014°35'1110.5
2016-May-28 04:33N 53°46' E 014°24'9 8.9
2016-May-28 03:34N 53°53' E 014°16'7 7.5
2016-May-28 02:34N 54°01' E 014°14'5 5.2
2016-May-28 01:34N 54°06' E 014°12'5 4.9
2016-May-28 00:34N 54°10' E 014°09'21 6.6
2016-May-27 21:18N 54°28' E 013°49'6 7.6
2016-May-27 20:34N 54°33' E 013°45'8 7.6
2016-May-27 19:34N 54°40' E 013°38'7 7.4
2016-May-27 18:34N 54°46' E 013°32'8 7.8
2016-May-27 17:34N 54°53' E 013°25'8 8.1
2016-May-27 16:33N 55°00' E 013°18'8 8.0
2016-May-27 15:33N 55°06' E 013°08'8 8.3
2016-May-27 14:33N 55°11' E 012°58'8 7.9
2016-May-27 13:33N 55°16' E 012°46'8 7.6
2016-May-27 12:34N 55°22' E 012°39'1110.8
2016-May-27 11:34N 55°33' E 012°42'1010.2
2016-May-27 10:34N 55°43' E 012°41'1110.7
2016-May-27 09:34N 55°54' E 012°39'1010.1
2016-May-27 08:34N 56°04' E 012°37'9 9.3
2016-May-27 07:34N 56°11' E 012°26'2310.2
2016-May-27 05:17N 56°33' E 012°14'810.8
2016-May-27 04:34N 56°41' E 012°11'1110.7
2016-May-27 03:34N 56°51' E 012°05'1110.6
2016-May-27 02:34N 57°01' E 012°00'1110.7
2016-May-27 01:34N 57°11' E 011°55'1110.5
2016-May-27 00:33N 57°20' E 011°43'1110.9
2016-May-26 23:33N 57°29' E 011°32'1111.4
2016-May-26 22:34N 57°38' E 011°20'1211.6
2016-May-26 21:34N 57°48' E 011°09'1111.3
2016-May-26 20:34N 57°58' E 010°58'1111.1
2016-May-26 19:34N 58°07' E 010°46'1111.5
2016-May-26 18:34N 58°17' E 010°35'1211.9
2016-May-26 17:34N 58°27' E 010°23'1111.4
2016-May-26 16:34N 58°37' E 010°11'1111.2
2016-May-26 15:33N 58°46' E 009°60'1111.0
2016-May-26 14:34N 58°56' E 009°49'9 8.9
2016-May-26 13:33N 59°03' E 009°40'4 0.2
2016-May-25 10:15N 59°08' E 009°37'1 0.1
2016-May-24 08:32N 59°06' E 009°38'0 0.1
2016-May-24 07:32N 59°06' E 009°38'0 0.0
2016-May-24 06:20N 59°06' E 009°38'0 0.1
2016-May-24 05:32N 59°06' E 009°38'0 0.0
2016-May-24 04:23N 59°06' E 009°38'0 0.0
2016-May-24 03:32N 59°06' E 009°38'0 0.0
2016-May-23 23:32N 59°06' E 009°38'0 0.0
2016-May-23 21:29N 59°06' E 009°38'0 0.0
2016-May-23 20:32N 59°06' E 009°38'0 0.0
2016-May-23 19:32N 59°06' E 009°38'0 0.0
2016-May-23 18:23N 59°06' E 009°38'0 0.0
2016-May-23 17:26N 59°06' E 009°38'0 0.0
2016-May-23 16:20N 59°06' E 009°38'0 0.0
2016-May-23 14:20N 59°06' E 009°38'0 0.0
2016-May-23 08:29N 59°06' E 009°38'0 0.0
2016-May-23 07:32N 59°06' E 009°38'0 0.0
2016-May-23 06:26N 59°06' E 009°38'0 0.0
2016-May-23 04:32N 59°06' E 009°38'0 0.0
2016-May-23 03:32N 59°06' E 009°38'  
2016-May-19 07:32N 59°05' E 009°38'9 8.8
2016-May-19 06:33N 58°57' E 009°47'  

Dump ship's entire track history